sensor_id;sensor_type;location;lat;lon;timestamp;P1;durP1;ratioP1;P2;durP2;ratioP2
48891;SDS011;50130;52.150;5.236;2023-03-23T00:02:49;9.9;;;6.7;;
48891;SDS011;50130;52.150;5.236;2023-03-23T00:04:25;11.7;;;6.8;;
48891;SDS011;50130;52.150;5.236;2023-03-23T00:06:01;10.9;;;6.3;;
48891;SDS011;50130;52.150;5.236;2023-03-23T00:09:15;11.0;;;6.2;;
48891;SDS011;50130;52.150;5.236;2023-03-23T00:10:51;12.1;;;6.7;;
48891;SDS011;50130;52.150;5.236;2023-03-23T00:12:28;8.81;;;5.3;;
48891;SDS011;50130;52.150;5.236;2023-03-23T00:14:07;14.0;;;6.3;;
48891;SDS011;50130;52.150;5.236;2023-03-23T00:17:22;10.8;;;6.1;;
48891;SDS011;50130;52.150;5.236;2023-03-23T00:18:59;10.21;;;6.0;;
48891;SDS011;50130;52.150;5.236;2023-03-23T00:20:37;8.1;;;5.7;;
48891;SDS011;50130;52.150;5.236;2023-03-23T00:23:53;9.71;;;5.8;;
48891;SDS011;50130;52.150;5.236;2023-03-23T00:25:29;10.0;;;5.7;;
48891;SDS011;50130;52.150;5.236;2023-03-23T00:27:05;11.3;;;5.4;;
48891;SDS011;50130;52.150;5.236;2023-03-23T00:30:17;9.21;;;5.7;;
48891;SDS011;50130;52.150;5.236;2023-03-23T00:31:53;9.81;;;5.3;;
48891;SDS011;50130;52.150;5.236;2023-03-23T00:33:30;8.1;;;4.91;;
48891;SDS011;50130;52.150;5.236;2023-03-23T00:35:09;7.5;;;4.91;;
48891;SDS011;50130;52.150;5.236;2023-03-23T00:38:22;10.0;;;5.2;;
48891;SDS011;50130;52.150;5.236;2023-03-23T00:40:00;9.4;;;4.91;;
48891;SDS011;50130;52.150;5.236;2023-03-23T00:41:36;9.1;;;4.61;;
48891;SDS011;50130;52.150;5.236;2023-03-23T00:44:48;9.0;;;4.91;;
48891;SDS011;50130;52.150;5.236;2023-03-23T00:46:25;8.4;;;4.61;;
48891;SDS011;50130;52.150;5.236;2023-03-23T00:48:01;7.4;;;4.5;;
48891;SDS011;50130;52.150;5.236;2023-03-23T00:51:14;9.71;;;4.5;;
48891;SDS011;50130;52.150;5.236;2023-03-23T00:52:50;8.31;;;4.3;;
48891;SDS011;50130;52.150;5.236;2023-03-23T00:54:27;7.4;;;4.0;;
48891;SDS011;50130;52.150;5.236;2023-03-23T00:56:04;8.5;;;4.3;;
48891;SDS011;50130;52.150;5.236;2023-03-23T00:59:17;9.5;;;4.3;;
48891;SDS011;50130;52.150;5.236;2023-03-23T01:00:54;8.2;;;4.1;;
48891;SDS011;50130;52.150;5.236;2023-03-23T01:02:30;6.9;;;4.2;;
48891;SDS011;50130;52.150;5.236;2023-03-23T01:05:45;9.0;;;4.41;;
48891;SDS011;50130;52.150;5.236;2023-03-23T01:07:21;8.5;;;4.41;;
48891;SDS011;50130;52.150;5.236;2023-03-23T01:08:58;7.0;;;3.8;;
48891;SDS011;50130;52.150;5.236;2023-03-23T01:12:11;7.7;;;4.2;;
48891;SDS011;50130;52.150;5.236;2023-03-23T01:13:47;7.3;;;4.1;;
48891;SDS011;50130;52.150;5.236;2023-03-23T01:15:23;7.1;;;4.0;;
48891;SDS011;50130;52.150;5.236;2023-03-23T01:16:59;7.7;;;4.1;;
48891;SDS011;50130;52.150;5.236;2023-03-23T01:20:13;9.1;;;4.5;;
48891;SDS011;50130;52.150;5.236;2023-03-23T01:21:50;8.71;;;4.61;;
48891;SDS011;50130;52.150;5.236;2023-03-23T01:23:26;8.4;;;4.8;;
48891;SDS011;50130;52.150;5.236;2023-03-23T01:26:40;6.3;;;4.3;;
48891;SDS011;50130;52.150;5.236;2023-03-23T01:28:16;8.81;;;4.3;;
48891;SDS011;50130;52.150;5.236;2023-03-23T01:29:52;7.0;;;4.2;;
48891;SDS011;50130;52.150;5.236;2023-03-23T01:33:04;7.7;;;4.5;;
48891;SDS011;50130;52.150;5.236;2023-03-23T01:34:40;8.4;;;4.61;;
48891;SDS011;50130;52.150;5.236;2023-03-23T01:36:17;7.3;;;4.41;;
48891;SDS011;50130;52.150;5.236;2023-03-23T01:37:56;7.7;;;4.0;;
48891;SDS011;50130;52.150;5.236;2023-03-23T01:41:11;7.8;;;4.1;;
48891;SDS011;50130;52.150;5.236;2023-03-23T01:42:50;8.1;;;4.0;;
48891;SDS011;50130;52.150;5.236;2023-03-23T01:45:22;6.8;;;4.2;;
48891;SDS011;50130;52.150;5.236;2023-03-23T01:47:01;6.4;;;3.7;;
48891;SDS011;50130;52.150;5.236;2023-03-23T01:48:38;8.1;;;4.41;;
48891;SDS011;50130;52.150;5.236;2023-03-23T01:51:54;6.8;;;3.8;;
48891;SDS011;50130;52.150;5.236;2023-03-23T01:53:36;6.8;;;3.8;;
48891;SDS011;50130;52.150;5.236;2023-03-23T01:55:16;7.9;;;3.8;;
48891;SDS011;50130;52.150;5.236;2023-03-23T01:56:54;7.3;;;3.9;;
48891;SDS011;50130;52.150;5.236;2023-03-23T02:00:13;9.9;;;4.1;;
48891;SDS011;50130;52.150;5.236;2023-03-23T02:01:50;7.2;;;3.9;;
48891;SDS011;50130;52.150;5.236;2023-03-23T02:03:28;6.5;;;3.8;;
48891;SDS011;50130;52.150;5.236;2023-03-23T02:05:08;7.2;;;3.9;;
48891;SDS011;50130;52.150;5.236;2023-03-23T02:08:26;7.2;;;4.1;;
48891;SDS011;50130;52.150;5.236;2023-03-23T02:10:04;6.1;;;3.8;;
48891;SDS011;50130;52.150;5.236;2023-03-23T02:11:41;6.1;;;3.5;;
48891;SDS011;50130;52.150;5.236;2023-03-23T02:14:54;4.8;;;3.6;;
48891;SDS011;50130;52.150;5.236;2023-03-23T02:16:33;6.5;;;3.4;;
48891;SDS011;50130;52.150;5.236;2023-03-23T02:18:25;6.6;;;3.4;;
48891;SDS011;50130;52.150;5.236;2023-03-23T02:20:16;7.1;;;3.8;;
48891;SDS011;50130;52.150;5.236;2023-03-23T02:22:15;6.3;;;3.0;;
48891;SDS011;50130;52.150;5.236;2023-03-23T02:25:40;5.3;;;2.8;;
48891;SDS011;50130;52.150;5.236;2023-03-23T02:27:38;6.3;;;3.4;;
48891;SDS011;50130;52.150;5.236;2023-03-23T02:30:11;5.8;;;3.1;;
48891;SDS011;50130;52.150;5.236;2023-03-23T02:32:04;6.0;;;3.2;;
48891;SDS011;50130;52.150;5.236;2023-03-23T02:33:50;5.6;;;3.3;;
48891;SDS011;50130;52.150;5.236;2023-03-23T02:35:33;6.0;;;3.0;;
48891;SDS011;50130;52.150;5.236;2023-03-23T02:37:13;6.0;;;3.1;;
48891;SDS011;50130;52.150;5.236;2023-03-23T02:38:57;4.41;;;3.1;;
48891;SDS011;50130;52.150;5.236;2023-03-23T02:40:41;5.4;;;3.3;;
48891;SDS011;50130;52.150;5.236;2023-03-23T02:44:03;6.6;;;3.5;;
48891;SDS011;50130;52.150;5.236;2023-03-23T02:45:41;5.4;;;3.2;;
48891;SDS011;50130;52.150;5.236;2023-03-23T02:47:21;4.7;;;3.4;;
48891;SDS011;50130;52.150;5.236;2023-03-23T02:49:00;6.7;;;3.4;;
48891;SDS011;50130;52.150;5.236;2023-03-23T02:52:22;5.5;;;3.1;;
48891;SDS011;50130;52.150;5.236;2023-03-23T02:54:03;4.3;;;2.6;;
48891;SDS011;50130;52.150;5.236;2023-03-23T02:55:42;4.61;;;3.4;;
48891;SDS011;50130;52.150;5.236;2023-03-23T02:57:20;5.4;;;2.9;;
48891;SDS011;50130;52.150;5.236;2023-03-23T03:00:35;4.0;;;2.4;;
48891;SDS011;50130;52.150;5.236;2023-03-23T03:02:12;5.3;;;2.8;;
48891;SDS011;50130;52.150;5.236;2023-03-23T03:03:53;6.5;;;2.9;;
48891;SDS011;50130;52.150;5.236;2023-03-23T03:09:25;5.6;;;2.9;;
48891;SDS011;50130;52.150;5.236;2023-03-23T03:11:10;4.41;;;2.5;;
48891;SDS011;50130;52.150;5.236;2023-03-23T03:12:51;6.0;;;3.0;;
48891;SDS011;50130;52.150;5.236;2023-03-23T03:14:33;6.0;;;2.7;;
48891;SDS011;50130;52.150;5.236;2023-03-23T03:16:19;7.2;;;2.8;;
48891;SDS011;50130;52.150;5.236;2023-03-23T03:19:48;7.3;;;2.6;;
48891;SDS011;50130;52.150;5.236;2023-03-23T03:21:29;6.1;;;3.0;;
48891;SDS011;50130;52.150;5.236;2023-03-23T03:23:09;7.0;;;2.5;;
48891;SDS011;50130;52.150;5.236;2023-03-23T03:24:48;6.1;;;2.31;;
48891;SDS011;50130;52.150;5.236;2023-03-23T03:28:06;5.0;;;2.4;;
48891;SDS011;50130;52.150;5.236;2023-03-23T03:29:42;5.8;;;2.7;;
48891;SDS011;50130;52.150;5.236;2023-03-23T03:31:22;6.5;;;2.5;;
48891;SDS011;50130;52.150;5.236;2023-03-23T03:33:04;7.9;;;2.8;;
48891;SDS011;50130;52.150;5.236;2023-03-23T03:36:18;8.6;;;2.8;;
48891;SDS011;50130;52.150;5.236;2023-03-23T03:37:57;7.6;;;2.7;;
48891;SDS011;50130;52.150;5.236;2023-03-23T03:41:18;6.0;;;2.4;;
48891;SDS011;50130;52.150;5.236;2023-03-23T03:44:31;7.5;;;2.5;;
48891;SDS011;50130;52.150;5.236;2023-03-23T03:46:08;5.7;;;2.5;;
48891;SDS011;50130;52.150;5.236;2023-03-23T03:47:44;7.6;;;2.6;;
48891;SDS011;50130;52.150;5.236;2023-03-23T03:50:57;5.3;;;2.21;;
48891;SDS011;50130;52.150;5.236;2023-03-23T03:52:33;6.6;;;2.21;;
48891;SDS011;50130;52.150;5.236;2023-03-23T03:54:10;6.5;;;2.4;;
48891;SDS011;50130;52.150;5.236;2023-03-23T03:57:22;7.6;;;2.31;;
48891;SDS011;50130;52.150;5.236;2023-03-23T03:58:58;6.4;;;2.31;;
48891;SDS011;50130;52.150;5.236;2023-03-23T04:00:35;5.5;;;2.21;;
48891;SDS011;50130;52.150;5.236;2023-03-23T04:02:11;5.5;;;2.0;;
48891;SDS011;50130;52.150;5.236;2023-03-23T04:05:23;4.91;;;2.31;;
48891;SDS011;50130;52.150;5.236;2023-03-23T04:06:59;7.3;;;2.4;;
48891;SDS011;50130;52.150;5.236;2023-03-23T04:08:36;6.8;;;2.1;;
48891;SDS011;50130;52.150;5.236;2023-03-23T04:11:48;6.3;;;2.4;;
48891;SDS011;50130;52.150;5.236;2023-03-23T04:13:25;5.4;;;2.21;;
48891;SDS011;50130;52.150;5.236;2023-03-23T04:15:01;8.9;;;2.5;;
48891;SDS011;50130;52.150;5.236;2023-03-23T04:18:14;5.5;;;2.31;;
48891;SDS011;50130;52.150;5.236;2023-03-23T04:19:52;7.1;;;2.21;;
48891;SDS011;50130;52.150;5.236;2023-03-23T04:21:29;8.5;;;2.5;;
48891;SDS011;50130;52.150;5.236;2023-03-23T04:23:05;7.2;;;2.31;;
48891;SDS011;50130;52.150;5.236;2023-03-23T04:26:18;5.3;;;2.0;;
48891;SDS011;50130;52.150;5.236;2023-03-23T04:27:54;8.71;;;2.31;;
48891;SDS011;50130;52.150;5.236;2023-03-23T04:29:30;6.2;;;2.4;;
48891;SDS011;50130;52.150;5.236;2023-03-23T04:32:42;6.7;;;2.1;;
48891;SDS011;50130;52.150;5.236;2023-03-23T04:34:18;7.7;;;2.21;;
48891;SDS011;50130;52.150;5.236;2023-03-23T04:35:55;7.4;;;2.6;;
48891;SDS011;50130;52.150;5.236;2023-03-23T04:39:14;7.5;;;2.4;;
48891;SDS011;50130;52.150;5.236;2023-03-23T04:40:50;10.21;;;2.7;;
48891;SDS011;50130;52.150;5.236;2023-03-23T04:42:28;8.71;;;2.5;;
48891;SDS011;50130;52.150;5.236;2023-03-23T04:44:06;9.21;;;2.4;;
48891;SDS011;50130;52.150;5.236;2023-03-23T04:47:19;8.9;;;2.6;;
48891;SDS011;50130;52.150;5.236;2023-03-23T04:48:55;9.0;;;2.4;;
48891;SDS011;50130;52.150;5.236;2023-03-23T04:50:32;13.2;;;2.7;;
48891;SDS011;50130;52.150;5.236;2023-03-23T04:53:45;8.5;;;2.4;;
48891;SDS011;50130;52.150;5.236;2023-03-23T04:55:21;9.6;;;2.4;;
48891;SDS011;50130;52.150;5.236;2023-03-23T04:56:57;7.0;;;2.21;;
48891;SDS011;50130;52.150;5.236;2023-03-23T05:00:10;10.1;;;2.4;;
48891;SDS011;50130;52.150;5.236;2023-03-23T05:01:46;11.7;;;2.7;;
48891;SDS011;50130;52.150;5.236;2023-03-23T05:03:23;11.7;;;2.6;;
48891;SDS011;50130;52.150;5.236;2023-03-23T05:04:59;9.5;;;2.5;;
48891;SDS011;50130;52.150;5.236;2023-03-23T05:08:11;10.4;;;2.9;;
48891;SDS011;50130;52.150;5.236;2023-03-23T05:09:47;12.5;;;3.1;;
48891;SDS011;50130;52.150;5.236;2023-03-23T05:11:24;9.9;;;2.6;;
48891;SDS011;50130;52.150;5.236;2023-03-23T05:14:39;11.4;;;2.8;;
48891;SDS011;50130;52.150;5.236;2023-03-23T05:16:16;11.3;;;2.9;;
48891;SDS011;50130;52.150;5.236;2023-03-23T05:17:52;12.3;;;2.8;;
48891;SDS011;50130;52.150;5.236;2023-03-23T05:21:04;12.4;;;2.8;;
48891;SDS011;50130;52.150;5.236;2023-03-23T05:22:40;13.1;;;3.0;;
48891;SDS011;50130;52.150;5.236;2023-03-23T05:24:17;14.7;;;3.2;;
48891;SDS011;50130;52.150;5.236;2023-03-23T05:25:53;12.6;;;3.2;;
48891;SDS011;50130;52.150;5.236;2023-03-23T05:29:07;16.2;;;3.6;;
48891;SDS011;50130;52.150;5.236;2023-03-23T05:30:43;17.11;;;3.6;;
48891;SDS011;50130;52.150;5.236;2023-03-23T05:32:19;16.11;;;3.5;;
48891;SDS011;50130;52.150;5.236;2023-03-23T05:35:31;15.0;;;3.5;;
48891;SDS011;50130;52.150;5.236;2023-03-23T05:37:08;12.2;;;3.3;;
48891;SDS011;50130;52.150;5.236;2023-03-23T05:38:44;14.1;;;3.8;;
48891;SDS011;50130;52.150;5.236;2023-03-23T05:41:57;13.5;;;3.2;;
48891;SDS011;50130;52.150;5.236;2023-03-23T05:43:33;15.8;;;3.4;;
48891;SDS011;50130;52.150;5.236;2023-03-23T05:45:09;15.2;;;4.1;;
48891;SDS011;50130;52.150;5.236;2023-03-23T05:46:47;16.3;;;3.7;;
48891;SDS011;50130;52.150;5.236;2023-03-23T05:50:01;17.2;;;3.9;;
48891;SDS011;50130;52.150;5.236;2023-03-23T05:51:37;15.7;;;3.6;;
48891;SDS011;50130;52.150;5.236;2023-03-23T05:53:13;16.61;;;3.4;;
48891;SDS011;50130;52.150;5.236;2023-03-23T05:56:25;16.4;;;4.2;;
48891;SDS011;50130;52.150;5.236;2023-03-23T05:58:01;14.1;;;3.5;;
48891;SDS011;50130;52.150;5.236;2023-03-23T05:59:37;19.5;;;4.8;;
48891;SDS011;50130;52.150;5.236;2023-03-23T06:02:50;19.5;;;4.7;;
48891;SDS011;50130;52.150;5.236;2023-03-23T06:04:30;15.5;;;3.9;;
48891;SDS011;50130;52.150;5.236;2023-03-23T06:06:08;15.9;;;4.0;;
48891;SDS011;50130;52.150;5.236;2023-03-23T06:07:46;18.8;;;4.41;;
48891;SDS011;50130;52.150;5.236;2023-03-23T06:10:58;18.11;;;4.3;;
48891;SDS011;50130;52.150;5.236;2023-03-23T06:12:34;18.3;;;4.5;;
48891;SDS011;50130;52.150;5.236;2023-03-23T06:14:10;12.6;;;3.8;;
48891;SDS011;50130;52.150;5.236;2023-03-23T06:17:24;16.2;;;4.41;;
48891;SDS011;50130;52.150;5.236;2023-03-23T06:19:00;11.5;;;3.5;;
48891;SDS011;50130;52.150;5.236;2023-03-23T06:20:36;9.71;;;3.5;;
48891;SDS011;50130;52.150;5.236;2023-03-23T06:23:49;13.1;;;3.9;;
48891;SDS011;50130;52.150;5.236;2023-03-23T06:25:25;15.7;;;4.7;;
48891;SDS011;50130;52.150;5.236;2023-03-23T06:27:01;15.9;;;4.91;;
48891;SDS011;50130;52.150;5.236;2023-03-23T06:28:37;15.1;;;3.8;;
48891;SDS011;50130;52.150;5.236;2023-03-23T06:31:51;17.7;;;4.3;;
48891;SDS011;50130;52.150;5.236;2023-03-23T06:33:32;14.3;;;4.2;;
48891;SDS011;50130;52.150;5.236;2023-03-23T06:35:09;13.2;;;4.1;;
48891;SDS011;50130;52.150;5.236;2023-03-23T06:38:23;16.11;;;4.5;;
48891;SDS011;50130;52.150;5.236;2023-03-23T06:39:59;15.0;;;4.91;;
48891;SDS011;50130;52.150;5.236;2023-03-23T06:41:35;11.6;;;3.8;;
48891;SDS011;50130;52.150;5.236;2023-03-23T06:44:49;12.0;;;3.6;;
48891;SDS011;50130;52.150;5.236;2023-03-23T06:46:25;13.7;;;4.3;;
48891;SDS011;50130;52.150;5.236;2023-03-23T06:48:01;18.41;;;4.61;;
48891;SDS011;50130;52.150;5.236;2023-03-23T06:49:37;15.1;;;4.5;;
48891;SDS011;50130;52.150;5.236;2023-03-23T06:52:50;16.0;;;4.61;;
48891;SDS011;50130;52.150;5.236;2023-03-23T06:54:27;17.8;;;4.5;;
48891;SDS011;50130;52.150;5.236;2023-03-23T06:56:03;10.6;;;3.9;;
48891;SDS011;50130;52.150;5.236;2023-03-23T06:59:15;12.5;;;3.8;;
48891;SDS011;50130;52.150;5.236;2023-03-23T07:00:53;15.0;;;4.1;;
48891;SDS011;50130;52.150;5.236;2023-03-23T07:02:29;13.2;;;4.2;;
48891;SDS011;50130;52.150;5.236;2023-03-23T07:05:41;14.5;;;4.41;;
48891;SDS011;50130;52.150;5.236;2023-03-23T07:07:22;15.3;;;4.2;;
48891;SDS011;50130;52.150;5.236;2023-03-23T07:08:58;18.7;;;4.8;;
48891;SDS011;50130;52.150;5.236;2023-03-23T07:10:34;15.9;;;4.1;;
48891;SDS011;50130;52.150;5.236;2023-03-23T07:13:46;13.2;;;4.3;;
48891;SDS011;50130;52.150;5.236;2023-03-23T07:15:22;13.6;;;4.1;;
48891;SDS011;50130;52.150;5.236;2023-03-23T07:16:58;13.5;;;3.9;;
48891;SDS011;50130;52.150;5.236;2023-03-23T07:20:11;14.7;;;3.9;;
48891;SDS011;50130;52.150;5.236;2023-03-23T07:21:48;15.3;;;4.0;;
48891;SDS011;50130;52.150;5.236;2023-03-23T07:23:24;13.6;;;4.0;;
48891;SDS011;50130;52.150;5.236;2023-03-23T07:26:36;15.6;;;4.61;;
48891;SDS011;50130;52.150;5.236;2023-03-23T07:28:12;13.8;;;4.1;;
48891;SDS011;50130;52.150;5.236;2023-03-23T07:29:48;14.7;;;3.8;;
48891;SDS011;50130;52.150;5.236;2023-03-23T07:34:41;16.11;;;4.3;;
48891;SDS011;50130;52.150;5.236;2023-03-23T07:36:17;16.11;;;4.3;;
48891;SDS011;50130;52.150;5.236;2023-03-23T07:37:53;15.7;;;4.1;;
48891;SDS011;50130;52.150;5.236;2023-03-23T07:41:06;13.8;;;3.8;;
48891;SDS011;50130;52.150;5.236;2023-03-23T07:42:43;13.9;;;4.2;;
48891;SDS011;50130;52.150;5.236;2023-03-23T07:44:21;15.8;;;4.1;;
48891;SDS011;50130;52.150;5.236;2023-03-23T07:45:58;13.8;;;3.7;;
48891;SDS011;50130;52.150;5.236;2023-03-23T07:49:10;15.5;;;4.1;;
48891;SDS011;50130;52.150;5.236;2023-03-23T07:50:46;16.7;;;3.9;;
48891;SDS011;50130;52.150;5.236;2023-03-23T07:52:22;15.6;;;3.8;;
48891;SDS011;50130;52.150;5.236;2023-03-23T07:55:35;16.8;;;3.9;;
48891;SDS011;50130;52.150;5.236;2023-03-23T07:57:11;14.4;;;3.4;;
48891;SDS011;50130;52.150;5.236;2023-03-23T07:58:47;13.1;;;3.7;;
48891;SDS011;50130;52.150;5.236;2023-03-23T08:02:01;17.8;;;4.1;;
48891;SDS011;50130;52.150;5.236;2023-03-23T08:03:38;18.91;;;4.61;;
48891;SDS011;50130;52.150;5.236;2023-03-23T08:05:14;14.4;;;3.9;;
48891;SDS011;50130;52.150;5.236;2023-03-23T08:08:27;15.7;;;4.2;;
48891;SDS011;50130;52.150;5.236;2023-03-23T08:10:03;16.4;;;3.9;;
48891;SDS011;50130;52.150;5.236;2023-03-23T08:11:40;15.6;;;3.9;;
48891;SDS011;50130;52.150;5.236;2023-03-23T08:13:17;13.9;;;3.3;;
48891;SDS011;50130;52.150;5.236;2023-03-23T08:16:30;16.11;;;3.6;;
48891;SDS011;50130;52.150;5.236;2023-03-23T08:18:06;13.4;;;3.4;;
48891;SDS011;50130;52.150;5.236;2023-03-23T08:19:43;16.5;;;4.2;;
48891;SDS011;50130;52.150;5.236;2023-03-23T08:22:55;12.8;;;3.4;;
48891;SDS011;50130;52.150;5.236;2023-03-23T08:24:32;11.7;;;3.3;;
48891;SDS011;50130;52.150;5.236;2023-03-23T08:26:09;13.5;;;3.6;;
48891;SDS011;50130;52.150;5.236;2023-03-23T08:29:23;15.6;;;3.7;;
48891;SDS011;50130;52.150;5.236;2023-03-23T08:30:59;13.8;;;3.4;;
48891;SDS011;50130;52.150;5.236;2023-03-23T08:32:36;13.6;;;3.7;;
48891;SDS011;50130;52.150;5.236;2023-03-23T08:34:12;12.9;;;3.8;;
48891;SDS011;50130;52.150;5.236;2023-03-23T08:37:31;10.21;;;3.3;;
48891;SDS011;50130;52.150;5.236;2023-03-23T08:39:08;13.9;;;3.4;;
48891;SDS011;50130;52.150;5.236;2023-03-23T08:40:44;12.0;;;3.6;;
48891;SDS011;50130;52.150;5.236;2023-03-23T08:43:56;11.6;;;4.0;;
48891;SDS011;50130;52.150;5.236;2023-03-23T08:45:32;15.1;;;3.5;;
48891;SDS011;50130;52.150;5.236;2023-03-23T08:47:08;12.0;;;3.8;;
48891;SDS011;50130;52.150;5.236;2023-03-23T08:48:44;12.9;;;3.5;;
48891;SDS011;50130;52.150;5.236;2023-03-23T08:52:01;14.6;;;4.41;;
48891;SDS011;50130;52.150;5.236;2023-03-23T08:53:38;13.5;;;3.9;;
48891;SDS011;50130;52.150;5.236;2023-03-23T08:55:15;14.5;;;4.1;;
48891;SDS011;50130;52.150;5.236;2023-03-23T08:58:28;15.1;;;4.5;;
48891;SDS011;50130;52.150;5.236;2023-03-23T09:00:06;18.11;;;4.0;;
48891;SDS011;50130;52.150;5.236;2023-03-23T09:01:44;12.9;;;4.0;;
48891;SDS011;50130;52.150;5.236;2023-03-23T09:04:57;13.0;;;4.0;;
48891;SDS011;50130;52.150;5.236;2023-03-23T09:06:34;15.2;;;3.4;;
48891;SDS011;50130;52.150;5.236;2023-03-23T09:08:10;16.4;;;4.3;;
48891;SDS011;50130;52.150;5.236;2023-03-23T09:09:47;14.5;;;4.3;;
48891;SDS011;50130;52.150;5.236;2023-03-23T09:12:59;15.4;;;3.9;;
48891;SDS011;50130;52.150;5.236;2023-03-23T09:14:35;14.5;;;3.9;;
48891;SDS011;50130;52.150;5.236;2023-03-23T09:16:12;12.7;;;3.5;;
48891;SDS011;50130;52.150;5.236;2023-03-23T09:19:28;14.6;;;3.7;;
48891;SDS011;50130;52.150;5.236;2023-03-23T09:21:04;13.0;;;4.0;;
48891;SDS011;50130;52.150;5.236;2023-03-23T09:22:42;13.8;;;4.1;;
48891;SDS011;50130;52.150;5.236;2023-03-23T09:24:21;15.8;;;4.1;;
48891;SDS011;50130;52.150;5.236;2023-03-23T09:27:37;16.61;;;3.7;;
48891;SDS011;50130;52.150;5.236;2023-03-23T09:29:14;15.7;;;3.7;;
48891;SDS011;50130;52.150;5.236;2023-03-23T09:30:50;17.5;;;4.2;;
48891;SDS011;50130;52.150;5.236;2023-03-23T09:34:02;13.5;;;4.0;;
48891;SDS011;50130;52.150;5.236;2023-03-23T09:35:38;17.2;;;4.41;;
48891;SDS011;50130;52.150;5.236;2023-03-23T09:37:15;14.6;;;3.4;;
48891;SDS011;50130;52.150;5.236;2023-03-23T09:40:30;16.8;;;4.1;;
48891;SDS011;50130;52.150;5.236;2023-03-23T09:42:23;16.61;;;4.3;;
48891;SDS011;50130;52.150;5.236;2023-03-23T09:44:14;17.91;;;4.2;;
48891;SDS011;50130;52.150;5.236;2023-03-23T09:46:02;14.3;;;3.9;;
48891;SDS011;50130;52.150;5.236;2023-03-23T09:48:04;17.11;;;4.0;;
48891;SDS011;50130;52.150;5.236;2023-03-23T09:50:09;17.3;;;3.9;;
48891;SDS011;50130;52.150;5.236;2023-03-23T09:51:49;15.7;;;3.9;;
48891;SDS011;50130;52.150;5.236;2023-03-23T09:55:15;17.91;;;4.7;;
48891;SDS011;50130;52.150;5.236;2023-03-23T09:56:53;17.11;;;4.2;;
48891;SDS011;50130;52.150;5.236;2023-03-23T09:58:32;16.11;;;4.0;;
48891;SDS011;50130;52.150;5.236;2023-03-23T10:00:18;16.8;;;3.8;;
48891;SDS011;50130;52.150;5.236;2023-03-23T10:02:02;17.61;;;4.41;;
48891;SDS011;50130;52.150;5.236;2023-03-23T10:05:52;17.0;;;3.8;;
48891;SDS011;50130;52.150;5.236;2023-03-23T10:07:29;19.2;;;4.3;;
48891;SDS011;50130;52.150;5.236;2023-03-23T10:09:06;14.5;;;3.8;;
48891;SDS011;50130;52.150;5.236;2023-03-23T10:10:53;15.1;;;3.9;;
48891;SDS011;50130;52.150;5.236;2023-03-23T10:12:38;16.2;;;3.7;;
48891;SDS011;50130;52.150;5.236;2023-03-23T10:16:17;18.41;;;4.41;;
48891;SDS011;50130;52.150;5.236;2023-03-23T10:18:03;14.9;;;3.3;;
48891;SDS011;50130;52.150;5.236;2023-03-23T10:19:49;13.5;;;3.6;;
48891;SDS011;50130;52.150;5.236;2023-03-23T10:21:51;14.7;;;3.7;;
48891;SDS011;50130;52.150;5.236;2023-03-23T10:23:40;13.0;;;3.5;;
48891;SDS011;50130;52.150;5.236;2023-03-23T10:25:28;14.7;;;4.0;;
48891;SDS011;50130;52.150;5.236;2023-03-23T10:27:12;16.2;;;3.7;;
48891;SDS011;50130;52.150;5.236;2023-03-23T10:30:37;14.7;;;3.7;;
48891;SDS011;50130;52.150;5.236;2023-03-23T10:32:17;15.3;;;3.8;;
48891;SDS011;50130;52.150;5.236;2023-03-23T10:33:59;15.4;;;4.1;;
48891;SDS011;50130;52.150;5.236;2023-03-23T10:35:42;13.1;;;3.1;;
48891;SDS011;50130;52.150;5.236;2023-03-23T10:37:34;14.8;;;3.7;;
48891;SDS011;50130;52.150;5.236;2023-03-23T10:40:57;16.7;;;3.9;;
48891;SDS011;50130;52.150;5.236;2023-03-23T10:42:41;13.4;;;3.1;;
48891;SDS011;50130;52.150;5.236;2023-03-23T10:44:18;14.3;;;3.3;;
48891;SDS011;50130;52.150;5.236;2023-03-23T10:45:59;13.2;;;3.5;;
48891;SDS011;50130;52.150;5.236;2023-03-23T10:49:33;14.2;;;3.7;;
48891;SDS011;50130;52.150;5.236;2023-03-23T10:51:14;14.2;;;3.5;;
48891;SDS011;50130;52.150;5.236;2023-03-23T10:52:54;15.1;;;4.1;;
48891;SDS011;50130;52.150;5.236;2023-03-23T10:54:35;17.3;;;4.2;;
48891;SDS011;50130;52.150;5.236;2023-03-23T10:58:02;16.0;;;3.9;;
48891;SDS011;50130;52.150;5.236;2023-03-23T10:59:40;17.0;;;3.5;;
48891;SDS011;50130;52.150;5.236;2023-03-23T11:01:17;14.8;;;4.0;;
48891;SDS011;50130;52.150;5.236;2023-03-23T11:02:58;17.61;;;4.2;;
48891;SDS011;50130;52.150;5.236;2023-03-23T11:06:18;16.11;;;3.7;;
48891;SDS011;50130;52.150;5.236;2023-03-23T11:07:57;12.4;;;3.4;;
48891;SDS011;50130;52.150;5.236;2023-03-23T11:09:36;15.7;;;3.6;;
48891;SDS011;50130;52.150;5.236;2023-03-23T11:11:15;15.1;;;3.8;;
48891;SDS011;50130;52.150;5.236;2023-03-23T11:14:34;14.8;;;3.9;;
48891;SDS011;50130;52.150;5.236;2023-03-23T11:16:22;16.9;;;4.1;;
48891;SDS011;50130;52.150;5.236;2023-03-23T11:18:01;13.8;;;3.6;;
48891;SDS011;50130;52.150;5.236;2023-03-23T11:19:39;13.9;;;3.6;;
48891;SDS011;50130;52.150;5.236;2023-03-23T11:22:52;14.1;;;3.6;;
48891;SDS011;50130;52.150;5.236;2023-03-23T11:24:29;15.3;;;4.41;;
48891;SDS011;50130;52.150;5.236;2023-03-23T11:26:10;15.5;;;4.41;;
48891;SDS011;50130;52.150;5.236;2023-03-23T11:27:50;16.0;;;4.0;;
48891;SDS011;50130;52.150;5.236;2023-03-23T11:31:05;12.9;;;3.5;;
48891;SDS011;50130;52.150;5.236;2023-03-23T11:32:43;11.3;;;3.2;;
48891;SDS011;50130;52.150;5.236;2023-03-23T11:34:21;17.11;;;4.3;;
48891;SDS011;50130;52.150;5.236;2023-03-23T11:37:40;14.5;;;4.3;;
48891;SDS011;50130;52.150;5.236;2023-03-23T11:39:21;14.5;;;4.3;;
48891;SDS011;50130;52.150;5.236;2023-03-23T11:40:59;16.0;;;3.7;;
48891;SDS011;50130;52.150;5.236;2023-03-23T11:42:38;15.9;;;4.5;;
48891;SDS011;50130;52.150;5.236;2023-03-23T11:46:02;14.4;;;3.6;;
48891;SDS011;50130;52.150;5.236;2023-03-23T11:47:50;14.0;;;3.8;;
48891;SDS011;50130;52.150;5.236;2023-03-23T11:49:37;12.3;;;3.7;;
48891;SDS011;50130;52.150;5.236;2023-03-23T11:51:23;12.2;;;3.5;;
48891;SDS011;50130;52.150;5.236;2023-03-23T11:53:10;12.9;;;3.5;;
48891;SDS011;50130;52.150;5.236;2023-03-23T11:54:56;16.4;;;3.9;;
48891;SDS011;50130;52.150;5.236;2023-03-23T11:58:19;15.2;;;3.7;;
48891;SDS011;50130;52.150;5.236;2023-03-23T11:59:56;13.6;;;3.9;;
48891;SDS011;50130;52.150;5.236;2023-03-23T12:01:37;15.0;;;4.0;;
48891;SDS011;50130;52.150;5.236;2023-03-23T12:03:34;16.9;;;4.0;;
48891;SDS011;50130;52.150;5.236;2023-03-23T12:05:34;14.7;;;3.8;;
48891;SDS011;50130;52.150;5.236;2023-03-23T12:09:21;16.9;;;4.0;;
48891;SDS011;50130;52.150;5.236;2023-03-23T12:11:15;17.0;;;4.0;;
48891;SDS011;50130;52.150;5.236;2023-03-23T12:13:02;15.4;;;3.5;;
48891;SDS011;50130;52.150;5.236;2023-03-23T12:14:51;16.0;;;4.2;;
48891;SDS011;50130;52.150;5.236;2023-03-23T12:16:41;16.4;;;4.1;;
48891;SDS011;50130;52.150;5.236;2023-03-23T12:18:37;14.9;;;3.9;;
48891;SDS011;50130;52.150;5.236;2023-03-23T12:20:31;15.7;;;4.1;;
48891;SDS011;50130;52.150;5.236;2023-03-23T12:22:19;17.91;;;4.1;;
48891;SDS011;50130;52.150;5.236;2023-03-23T12:24:21;18.2;;;4.0;;
48891;SDS011;50130;52.150;5.236;2023-03-23T12:27:58;15.4;;;3.5;;
48891;SDS011;50130;52.150;5.236;2023-03-23T12:29:48;14.9;;;4.0;;
48891;SDS011;50130;52.150;5.236;2023-03-23T12:31:40;19.3;;;4.61;;
48891;SDS011;50130;52.150;5.236;2023-03-23T12:33:27;16.2;;;3.8;;
48891;SDS011;50130;52.150;5.236;2023-03-23T12:35:22;13.1;;;3.8;;
48891;SDS011;50130;52.150;5.236;2023-03-23T12:37:15;17.41;;;4.2;;
48891;SDS011;50130;52.150;5.236;2023-03-23T12:39:25;12.5;;;3.6;;
48891;SDS011;50130;52.150;5.236;2023-03-23T12:41:20;14.5;;;3.3;;
48891;SDS011;50130;52.150;5.236;2023-03-23T12:43:04;15.0;;;3.6;;
48891;SDS011;50130;52.150;5.236;2023-03-23T12:46:52;11.1;;;2.9;;
48891;SDS011;50130;52.150;5.236;2023-03-23T12:49:29;12.6;;;3.1;;
48891;SDS011;50130;52.150;5.236;2023-03-23T12:52:58;12.4;;;3.2;;
48891;SDS011;50130;52.150;5.236;2023-03-23T12:54:41;12.4;;;3.5;;
48891;SDS011;50130;52.150;5.236;2023-03-23T12:56:23;10.7;;;2.8;;
48891;SDS011;50130;52.150;5.236;2023-03-23T12:58:05;10.8;;;2.9;;